createdAt,value
2023-03-06T00:00:57.548Z,-2.60
2023-03-06T00:03:28.028Z,-2.54
2023-03-06T00:05:57.684Z,-2.50
2023-03-06T00:08:27.120Z,-2.50
2023-03-06T00:10:56.269Z,-2.50
2023-03-06T00:13:25.098Z,-2.50
2023-03-06T00:15:53.476Z,-2.42
2023-03-06T00:18:21.506Z,-2.40
2023-03-06T00:20:49.411Z,-2.40
2023-03-06T00:23:17.443Z,-2.40
2023-03-06T00:25:45.807Z,-2.40
2023-03-06T00:28:15.871Z,-2.40
2023-03-06T00:30:44.598Z,-2.40
2023-03-06T00:33:12.548Z,-2.40
2023-03-06T00:35:41.120Z,-2.40
2023-03-06T00:38:11.918Z,-2.40
2023-03-06T00:40:39.927Z,-2.40
2023-03-06T00:43:08.250Z,-2.36
2023-03-06T00:45:36.741Z,-2.38
2023-03-06T00:48:05.401Z,-2.38
2023-03-06T00:50:35.252Z,-2.38
2023-03-06T00:53:03.559Z,-2.30
2023-03-06T00:55:33.549Z,-2.30
2023-03-06T00:58:01.759Z,-2.30
2023-03-06T01:00:30.017Z,-2.30
2023-03-06T01:02:58.024Z,-2.20
2023-03-06T01:05:26.810Z,-2.20
2023-03-06T01:07:54.860Z,-2.20
2023-03-06T01:10:22.849Z,-2.18
2023-03-06T01:12:50.774Z,-2.10
2023-03-06T01:15:20.471Z,-2.10
2023-03-06T01:17:48.586Z,-2.10
2023-03-06T01:20:16.720Z,-2.10
2023-03-06T01:22:44.965Z,-2.02
2023-03-06T01:25:12.826Z,-2.00
2023-03-06T01:27:40.724Z,-2.00
2023-03-06T01:30:12.761Z,-2.00
2023-03-06T01:32:40.692Z,-1.96
2023-03-06T01:35:09.633Z,-1.92
2023-03-06T01:37:38.213Z,-1.90
2023-03-06T01:40:08.252Z,-1.92
2023-03-06T01:42:36.632Z,-1.96
2023-03-06T01:45:14.143Z,-2.00
2023-03-06T01:47:42.265Z,-2.00
2023-03-06T01:50:10.680Z,-2.00
2023-03-06T01:52:54.217Z,-2.08
2023-03-06T01:55:29.152Z,-2.10
2023-03-06T01:57:59.327Z,-2.10
2023-03-06T02:00:28.986Z,-2.20
2023-03-06T02:03:05.580Z,-2.20
2023-03-06T02:05:33.919Z,-2.20
2023-03-06T02:08:03.242Z,-2.20
2023-03-06T02:10:31.064Z,-2.28
2023-03-06T02:12:59.206Z,-2.30
2023-03-06T02:15:29.271Z,-2.30
2023-03-06T02:17:57.444Z,-2.40
2023-03-06T02:20:49.330Z,-2.40
2023-03-06T02:23:37.926Z,-2.40
2023-03-06T02:26:05.702Z,-2.50
2023-03-06T02:28:33.813Z,-2.50
2023-03-06T02:31:01.661Z,-2.60
2023-03-06T02:33:30.065Z,-2.60
2023-03-06T02:36:03.758Z,-2.70
2023-03-06T02:38:38.375Z,-2.70
2023-03-06T02:41:08.275Z,-2.80
2023-03-06T02:43:38.723Z,-2.80
2023-03-06T02:46:07.305Z,-2.80
2023-03-06T02:48:35.325Z,-2.80
2023-03-06T02:51:03.604Z,-2.88
2023-03-06T02:53:31.789Z,-2.90
2023-03-06T02:56:00.857Z,-2.90
2023-03-06T02:58:29.206Z,-2.90
2023-03-06T03:00:57.439Z,-2.90
2023-03-06T03:03:25.389Z,-2.90
2023-03-06T03:05:53.796Z,-2.90
2023-03-06T03:08:24.717Z,-2.90
2023-03-06T03:10:56.450Z,-2.90
2023-03-06T03:13:25.102Z,-2.98
2023-03-06T03:16:01.349Z,-2.96
2023-03-06T03:18:29.173Z,-3.00
2023-03-06T03:20:57.331Z,-3.00
2023-03-06T03:23:26.175Z,-3.00
2023-03-06T03:26:19.586Z,-3.08
2023-03-06T03:29:06.811Z,-3.10
2023-03-06T03:31:34.737Z,-3.04
2023-03-06T03:34:03.781Z,-3.00
2023-03-06T03:36:34.279Z,-2.90
2023-03-06T03:39:04.173Z,-2.86
2023-03-06T03:41:33.723Z,-2.80
2023-03-06T03:44:04.387Z,-2.78
2023-03-06T03:46:33.235Z,-2.70
2023-03-06T03:49:01.545Z,-2.70
2023-03-06T03:51:29.682Z,-2.60
2023-03-06T03:53:58.395Z,-2.60
2023-03-06T03:56:28.290Z,-2.60
2023-03-06T03:59:01.491Z,-2.50
2023-03-06T04:01:32.951Z,-2.50
2023-03-06T04:04:00.927Z,-2.40
2023-03-06T04:06:29.579Z,-2.40
2023-03-06T04:08:57.950Z,-2.32
2023-03-06T04:11:26.223Z,-2.30
2023-03-06T04:13:54.790Z,-2.20
2023-03-06T04:16:23.405Z,-2.20
2023-03-06T04:18:52.086Z,-2.20
2023-03-06T04:21:21.231Z,-2.20
2023-03-06T04:23:49.252Z,-2.18
2023-03-06T04:26:17.386Z,-2.16
2023-03-06T04:28:45.585Z,-2.10
2023-03-06T04:31:13.903Z,-2.10
2023-03-06T04:33:42.221Z,-2.10
2023-03-06T04:36:20.866Z,-2.10
2023-03-06T04:38:49.991Z,-2.10
2023-03-06T04:41:18.442Z,-2.08
2023-03-06T04:43:46.396Z,-2.08
2023-03-06T04:46:14.383Z,-2.06
2023-03-06T04:48:42.811Z,-2.06
2023-03-06T04:51:12.850Z,-2.00
2023-03-06T04:53:40.757Z,-2.08
2023-03-06T04:56:08.836Z,-2.02
2023-03-06T04:58:36.886Z,-2.00
2023-03-06T05:01:04.976Z,-2.00
2023-03-06T05:03:33.170Z,-2.00
2023-03-06T05:06:01.116Z,-2.00
2023-03-06T05:08:29.980Z,-2.00
2023-03-06T05:11:00.997Z,-2.00
2023-03-06T05:13:28.936Z,-2.00
2023-03-06T05:16:05.297Z,-2.00
2023-03-06T05:18:34.504Z,-2.00
2023-03-06T05:21:02.622Z,-2.04
2023-03-06T05:23:32.244Z,-2.00
2023-03-06T05:26:00.542Z,-2.00
2023-03-06T05:28:28.792Z,-2.00
2023-03-06T05:30:56.749Z,-2.00
2023-03-06T05:33:24.777Z,-2.00
2023-03-06T05:35:52.967Z,-2.00
2023-03-06T05:38:20.944Z,-2.00
2023-03-06T05:40:49.114Z,-2.04
2023-03-06T05:43:16.935Z,-2.10
2023-03-06T05:45:45.081Z,-2.10
2023-03-06T05:48:13.849Z,-2.00
2023-03-06T05:50:41.854Z,-2.00
2023-03-06T05:53:10.514Z,-1.92
2023-03-06T05:55:38.458Z,-1.90
2023-03-06T05:58:06.459Z,-1.80
2023-03-06T06:00:34.513Z,-1.80
2023-03-06T06:03:03.017Z,-1.70
2023-03-06T06:05:30.954Z,-1.60
2023-03-06T06:07:59.159Z,-1.50
2023-03-06T06:10:27.921Z,-1.42
2023-03-06T06:12:56.293Z,-1.36
2023-03-06T06:15:26.110Z,-1.30
2023-03-06T06:17:57.238Z,-1.20
2023-03-06T06:20:25.456Z,-1.10
2023-03-06T06:22:53.777Z,-1.10
2023-03-06T06:25:21.669Z,-1.04
2023-03-06T06:27:49.501Z,-1.00
2023-03-06T06:30:18.423Z,-0.96
2023-03-06T06:32:46.290Z,-0.90
2023-03-06T06:35:14.605Z,-0.88
2023-03-06T06:37:42.779Z,-0.80
2023-03-06T06:40:11.950Z,-0.70
2023-03-06T06:42:40.500Z,-0.70
2023-03-06T06:45:11.761Z,-0.60
2023-03-06T06:47:43.643Z,-0.60
2023-03-06T06:50:13.304Z,-0.50
2023-03-06T06:52:41.481Z,-0.50
2023-03-06T06:55:10.915Z,-0.40
2023-03-06T06:57:40.687Z,-0.40
2023-03-06T07:00:11.775Z,-0.38
2023-03-06T07:02:40.456Z,-0.30
2023-03-06T07:05:09.771Z,-0.30
2023-03-06T07:07:38.210Z,-0.30
2023-03-06T07:10:12.225Z,-0.30
2023-03-06T07:12:40.708Z,-0.22
2023-03-06T07:15:11.064Z,-0.20
2023-03-06T07:17:39.037Z,-0.20
2023-03-06T07:20:08.933Z,-0.20
2023-03-06T07:22:48.692Z,-0.16
2023-03-06T07:25:19.295Z,-0.10
2023-03-06T07:27:53.328Z,-0.10
2023-03-06T07:30:23.426Z,-0.10
2023-03-06T07:32:58.495Z,-0.06
2023-03-06T07:35:26.880Z,0.00
2023-03-06T07:37:54.878Z,0.00
2023-03-06T07:40:23.127Z,0.04
2023-03-06T07:43:09.185Z,0.10
2023-03-06T07:45:43.933Z,0.10
2023-03-06T07:48:11.887Z,0.20
2023-03-06T07:50:40.143Z,0.30
2023-03-06T07:53:08.855Z,0.40
2023-03-06T07:55:41.497Z,0.50
2023-03-06T07:58:09.256Z,0.50
2023-03-06T08:00:37.600Z,0.50
2023-03-06T08:03:05.847Z,0.50
2023-03-06T08:05:33.787Z,0.40
2023-03-06T08:08:01.610Z,0.40
2023-03-06T08:10:29.515Z,0.50
2023-03-06T08:12:57.482Z,0.60
2023-03-06T08:15:25.306Z,0.60
2023-03-06T08:17:53.851Z,0.70
2023-03-06T08:20:21.835Z,0.70
2023-03-06T08:22:49.911Z,0.80
2023-03-06T08:25:18.175Z,0.90
2023-03-06T08:27:47.662Z,0.90
2023-03-06T08:30:16.477Z,0.90
2023-03-06T08:32:44.912Z,0.90
2023-03-06T08:35:12.954Z,0.90
2023-03-06T08:37:40.993Z,0.90
2023-03-06T08:40:11.801Z,1.00
2023-03-06T08:42:39.870Z,1.00
2023-03-06T08:45:09.125Z,1.04
2023-03-06T08:47:36.830Z,1.04
2023-03-06T08:50:05.490Z,1.00
2023-03-06T08:52:33.417Z,1.10
2023-03-06T08:55:03.688Z,1.10
2023-03-06T08:57:31.841Z,1.12
2023-03-06T08:59:59.777Z,1.24
2023-03-06T09:02:27.714Z,1.40
2023-03-06T09:04:55.698Z,1.46
2023-03-06T09:07:24.411Z,1.40
2023-03-06T09:09:57.825Z,1.40
2023-03-06T09:12:26.035Z,1.40
2023-03-06T09:14:53.985Z,1.40
2023-03-06T09:17:22.445Z,1.40
2023-03-06T09:19:51.092Z,1.50
2023-03-06T09:22:19.141Z,1.54
2023-03-06T09:24:47.162Z,1.60
2023-03-06T09:27:15.373Z,1.60
2023-03-06T09:29:43.858Z,1.66
2023-03-06T09:32:13.574Z,1.70
2023-03-06T09:34:42.839Z,1.80
2023-03-06T09:37:11.613Z,1.82
2023-03-06T09:39:40.543Z,1.90
2023-03-06T09:42:09.022Z,2.00
2023-03-06T09:44:36.931Z,2.10
2023-03-06T09:47:48.994Z,2.20
2023-03-06T09:50:22.899Z,2.30
2023-03-06T09:53:17.257Z,2.38
2023-03-06T09:56:01.366Z,2.50
2023-03-06T09:58:30.963Z,2.54
2023-03-06T10:01:35.220Z,2.60
2023-03-06T10:04:40.691Z,2.56
2023-03-06T10:07:24.457Z,2.56
2023-03-06T10:10:06.544Z,2.60
2023-03-06T10:12:39.027Z,2.68
2023-03-06T10:15:19.665Z,2.70
2023-03-06T10:17:48.190Z,2.80
2023-03-06T10:20:34.847Z,3.00
2023-03-06T10:23:12.795Z,3.20
2023-03-06T10:25:50.721Z,3.40
2023-03-06T10:28:27.751Z,3.50
2023-03-06T10:31:29.042Z,3.58
2023-03-06T10:34:23.032Z,3.50
2023-03-06T10:36:51.290Z,3.50
2023-03-06T10:39:21.419Z,3.58
2023-03-06T10:41:49.704Z,3.70
2023-03-06T10:44:20.060Z,3.80
2023-03-06T10:46:51.569Z,3.80
2023-03-06T10:49:36.706Z,3.90
2023-03-06T10:52:28.869Z,4.00
2023-03-06T10:55:36.546Z,4.10
2023-03-06T10:58:28.093Z,4.20
2023-03-06T11:01:03.939Z,4.30
2023-03-06T11:03:31.896Z,4.40
2023-03-06T11:06:13.557Z,4.42
2023-03-06T11:08:43.905Z,4.50
2023-03-06T11:11:16.989Z,4.40
2023-03-06T11:13:46.437Z,4.30
2023-03-06T11:16:26.924Z,4.22
2023-03-06T11:18:58.397Z,4.24
2023-03-06T11:21:37.208Z,4.30
2023-03-06T11:24:20.068Z,4.30
2023-03-06T11:26:59.846Z,4.24
2023-03-06T11:29:43.286Z,4.22
2023-03-06T11:32:24.639Z,4.30
2023-03-06T11:34:59.557Z,4.28
2023-03-06T11:37:54.523Z,4.30
2023-03-06T11:40:37.162Z,4.30
2023-03-06T11:43:30.089Z,4.30
2023-03-06T11:46:08.403Z,4.30
2023-03-06T11:48:50.075Z,4.40
2023-03-06T11:51:23.006Z,4.46
2023-03-06T11:53:50.932Z,4.44
2023-03-06T11:56:19.096Z,4.50
2023-03-06T11:59:16.253Z,4.50
2023-03-06T12:02:23.900Z,4.60
2023-03-06T12:05:12.772Z,4.60
2023-03-06T12:08:05.143Z,4.62
2023-03-06T12:10:51.879Z,4.70
2023-03-06T12:13:39.001Z,4.74
2023-03-06T12:16:42.398Z,4.70
2023-03-06T12:19:41.986Z,4.60
2023-03-06T12:22:57.700Z,4.68
2023-03-06T12:25:41.711Z,4.70
2023-03-06T12:28:34.909Z,4.76
2023-03-06T12:31:51.685Z,4.80
2023-03-06T12:35:22.606Z,4.80
2023-03-06T12:37:59.415Z,4.90
2023-03-06T12:40:44.397Z,4.88
2023-03-06T12:43:46.377Z,4.88
2023-03-06T12:46:23.511Z,4.90
2023-03-06T12:49:06.177Z,4.90
2023-03-06T12:51:34.207Z,5.00
2023-03-06T12:54:03.339Z,4.90
2023-03-06T12:56:31.923Z,4.90
2023-03-06T12:59:02.824Z,4.92
2023-03-06T13:02:18.110Z,4.90
2023-03-06T13:05:24.046Z,4.82
2023-03-06T13:08:26.904Z,4.80
2023-03-06T13:11:35.741Z,4.82
2023-03-06T13:14:34.361Z,4.70
2023-03-06T13:17:39.625Z,4.62
2023-03-06T13:20:13.535Z,4.52
2023-03-06T13:22:45.350Z,4.50
2023-03-06T13:25:19.122Z,4.50
2023-03-06T13:27:53.130Z,4.50
2023-03-06T13:30:39.304Z,4.58
2023-03-06T13:33:22.679Z,4.60
2023-03-06T13:35:58.481Z,4.70
2023-03-06T13:38:56.838Z,4.70
2023-03-06T13:41:25.118Z,4.80
2023-03-06T13:43:57.372Z,4.90
2023-03-06T13:46:36.155Z,4.90
2023-03-06T13:49:13.051Z,4.90
2023-03-06T13:51:43.437Z,4.90
2023-03-06T13:54:42.742Z,4.80
2023-03-06T13:57:35.699Z,4.72
2023-03-06T14:00:53.271Z,4.70
2023-03-06T14:03:59.108Z,4.60
2023-03-06T14:06:37.427Z,4.50
2023-03-06T14:09:07.528Z,4.50
2023-03-06T14:11:35.469Z,4.54
2023-03-06T14:14:03.391Z,4.50
2023-03-06T14:16:49.019Z,4.58
2023-03-06T14:22:43.794Z,4.70
2023-03-06T14:25:30.204Z,4.70
2023-03-06T14:28:05.701Z,4.70
2023-03-06T14:30:49.953Z,4.60
2023-03-06T14:33:37.191Z,4.50
2023-03-06T14:36:09.772Z,4.40
2023-03-06T14:38:44.025Z,4.30
2023-03-06T14:41:14.079Z,4.30
2023-03-06T14:43:42.420Z,4.28
2023-03-06T14:46:21.651Z,4.20
2023-03-06T14:48:49.791Z,4.20
2023-03-06T14:51:23.105Z,4.12
2023-03-06T14:53:52.605Z,4.10
2023-03-06T14:56:23.611Z,4.10
2023-03-06T14:59:04.817Z,4.00
2023-03-06T15:01:41.515Z,4.00
2023-03-06T15:04:24.721Z,4.00
2023-03-06T15:06:52.875Z,3.90
2023-03-06T15:09:33.360Z,3.90
2023-03-06T15:12:02.389Z,3.90
2023-03-06T15:14:36.088Z,3.90
2023-03-06T15:17:19.418Z,3.88
2023-03-06T15:19:58.240Z,3.70
2023-03-06T15:22:39.769Z,3.36
2023-03-06T15:25:29.985Z,3.10
2023-03-06T15:28:03.376Z,2.90
2023-03-06T15:30:33.739Z,2.70
2023-03-06T15:33:24.504Z,2.60
2023-03-06T15:36:02.139Z,2.50
2023-03-06T15:38:35.546Z,2.44
2023-03-06T15:41:05.693Z,2.40
2023-03-06T15:43:42.601Z,2.30
2023-03-06T15:46:10.796Z,2.30
2023-03-06T15:48:40.696Z,2.20
2023-03-06T15:51:11.434Z,2.20
2023-03-06T15:53:40.611Z,2.10
2023-03-06T15:56:11.273Z,2.10
2023-03-06T15:58:40.029Z,2.10
2023-03-06T16:01:08.268Z,2.00
2023-03-06T16:03:36.364Z,2.00
2023-03-06T16:06:04.841Z,1.98
2023-03-06T16:08:34.263Z,1.90
2023-03-06T16:11:02.843Z,1.90
2023-03-06T16:13:31.049Z,1.90
2023-03-06T16:15:59.087Z,1.90
2023-03-06T16:18:27.430Z,1.80
2023-03-06T16:20:55.499Z,1.80
2023-03-06T16:23:23.507Z,1.80
2023-03-06T16:25:51.574Z,1.70
2023-03-06T16:28:19.696Z,1.70
2023-03-06T16:30:47.869Z,1.70
2023-03-06T16:33:16.078Z,1.60
2023-03-06T16:35:46.701Z,1.60
2023-03-06T16:38:15.767Z,1.60
2023-03-06T16:40:43.664Z,1.60
2023-03-06T16:43:13.601Z,1.58
2023-03-06T16:45:41.992Z,1.54
2023-03-06T16:48:18.977Z,1.50
2023-03-06T16:50:47.014Z,1.44
2023-03-06T16:53:15.638Z,1.40
2023-03-06T16:55:43.874Z,1.40
2023-03-06T16:58:12.421Z,1.40
2023-03-06T17:00:40.983Z,1.36
2023-03-06T17:03:09.019Z,1.30
2023-03-06T17:05:38.097Z,1.30
2023-03-06T17:08:06.107Z,1.30
2023-03-06T17:10:34.550Z,1.30
2023-03-06T17:13:03.416Z,1.30
2023-03-06T17:15:31.857Z,1.30
2023-03-06T17:17:59.892Z,1.30
2023-03-06T17:20:28.016Z,1.28
2023-03-06T17:22:56.549Z,1.30
2023-03-06T17:25:24.808Z,1.26
2023-03-06T17:27:52.714Z,1.26
2023-03-06T17:30:20.716Z,1.30
2023-03-06T17:32:48.779Z,1.30
2023-03-06T17:35:16.914Z,1.30
2023-03-06T17:37:45.047Z,1.30
2023-03-06T17:40:15.590Z,1.30
2023-03-06T17:42:43.413Z,1.30
2023-03-06T17:45:12.157Z,1.30
2023-03-06T17:47:40.086Z,1.30
2023-03-06T17:50:09.819Z,1.24
2023-03-06T17:52:39.027Z,1.24
2023-03-06T17:55:08.073Z,1.26
2023-03-06T17:57:35.973Z,1.24
2023-03-06T18:00:06.007Z,1.30
2023-03-06T18:02:40.101Z,1.28
2023-03-06T18:05:09.540Z,1.26
2023-03-06T18:07:37.922Z,1.22
2023-03-06T18:10:06.391Z,1.28
2023-03-06T18:12:34.488Z,1.28
2023-03-06T18:15:03.979Z,1.28
2023-03-06T18:17:32.009Z,1.20
2023-03-06T18:20:00.345Z,1.26
2023-03-06T18:22:28.367Z,1.26
2023-03-06T18:24:56.410Z,1.20
2023-03-06T18:27:24.336Z,1.20
2023-03-06T18:29:52.678Z,1.20
2023-03-06T18:32:22.511Z,1.20
2023-03-06T18:34:50.973Z,1.18
2023-03-06T18:37:19.148Z,1.10
2023-03-06T18:39:47.627Z,1.10
2023-03-06T18:42:15.596Z,1.10
2023-03-06T18:44:47.808Z,1.10
2023-03-06T18:47:15.833Z,1.06
2023-03-06T18:49:46.044Z,1.00
2023-03-06T18:52:14.837Z,1.00
2023-03-06T18:54:44.832Z,1.00
2023-03-06T18:57:13.767Z,1.00
2023-03-06T18:59:42.723Z,1.02
2023-03-06T19:02:12.780Z,1.04
2023-03-06T19:04:41.284Z,1.08
2023-03-06T19:07:09.578Z,1.08
2023-03-06T19:09:37.489Z,1.08
2023-03-06T19:12:06.369Z,1.04
2023-03-06T19:14:36.492Z,1.08
2023-03-06T19:17:05.273Z,1.00
2023-03-06T19:19:33.600Z,1.00
2023-03-06T19:22:02.049Z,1.00
2023-03-06T19:24:29.880Z,1.00
2023-03-06T19:26:58.278Z,1.00
2023-03-06T19:29:26.857Z,1.00
2023-03-06T19:31:57.255Z,1.00
2023-03-06T19:34:25.241Z,1.00
2023-03-06T19:36:53.561Z,1.00
2023-03-06T19:39:21.586Z,1.00
2023-03-06T19:41:49.440Z,1.00
2023-03-06T19:44:17.719Z,1.02
2023-03-06T19:46:45.702Z,1.00
2023-03-06T19:49:16.903Z,1.00
2023-03-06T19:51:45.223Z,1.00
2023-03-06T19:54:14.838Z,1.00
2023-03-06T19:56:42.701Z,1.00
2023-03-06T19:59:10.886Z,1.00
2023-03-06T20:01:40.263Z,1.00
2023-03-06T20:04:08.900Z,1.00
2023-03-06T20:06:37.747Z,1.00
2023-03-06T20:09:08.673Z,1.00
2023-03-06T20:11:36.814Z,0.92
2023-03-06T20:14:06.884Z,0.96
2023-03-06T20:16:35.146Z,0.98
2023-03-06T20:19:04.075Z,1.00
2023-03-06T20:21:38.231Z,1.00
2023-03-06T20:24:07.733Z,1.00
2023-03-06T20:26:37.705Z,1.00
2023-03-06T20:29:05.939Z,0.90
2023-03-06T20:31:34.040Z,0.90
2023-03-06T20:34:02.674Z,0.90
2023-03-06T20:36:36.250Z,0.90
2023-03-06T20:39:07.145Z,0.90
2023-03-06T20:41:35.553Z,0.90
2023-03-06T20:44:04.758Z,0.90
2023-03-06T20:46:33.886Z,0.90
2023-03-06T20:49:02.338Z,0.90
2023-03-06T20:51:33.339Z,0.90
2023-03-06T20:54:01.597Z,0.90
2023-03-06T20:56:32.272Z,0.90
2023-03-06T20:59:00.509Z,0.90
2023-03-06T21:01:34.024Z,0.98
2023-03-06T21:04:02.429Z,0.92
2023-03-06T21:06:30.982Z,1.00
2023-03-06T21:08:59.754Z,1.00
2023-03-06T21:11:28.036Z,1.00
2023-03-06T21:13:56.346Z,0.98
2023-03-06T21:16:25.599Z,1.00
2023-03-06T21:18:58.059Z,1.00
2023-03-06T21:21:29.756Z,0.90
2023-03-06T21:23:57.831Z,0.90
2023-03-06T21:26:28.201Z,0.90
2023-03-06T21:28:58.114Z,0.90
2023-03-06T21:31:27.136Z,0.90
2023-03-06T21:33:55.622Z,0.90
2023-03-06T21:36:23.377Z,0.92
2023-03-06T21:38:52.395Z,0.92
2023-03-06T21:41:26.452Z,0.90
2023-03-06T21:43:59.682Z,0.92
2023-03-06T21:46:27.885Z,0.92
2023-03-06T21:48:56.486Z,0.90
2023-03-06T21:51:25.529Z,0.90
2023-03-06T21:53:53.976Z,0.90
2023-03-06T21:56:25.031Z,0.90
2023-03-06T21:58:53.129Z,0.90
2023-03-06T22:01:27.045Z,0.90
2023-03-06T22:03:55.328Z,0.90
2023-03-06T22:06:25.652Z,0.90
2023-03-06T22:08:55.209Z,0.88
2023-03-06T22:11:24.430Z,0.88
2023-03-06T22:13:55.856Z,0.90
2023-03-06T22:16:23.976Z,0.90
2023-03-06T22:18:52.071Z,0.84
2023-03-06T22:21:21.343Z,0.86
2023-03-06T22:23:54.248Z,0.84
2023-03-06T22:26:22.477Z,0.90
2023-03-06T22:28:50.384Z,0.84
2023-03-06T22:31:24.309Z,0.86
2023-03-06T22:33:56.834Z,0.86
2023-03-06T22:36:24.771Z,0.86
2023-03-06T22:38:58.264Z,0.80
2023-03-06T22:41:26.986Z,0.80
2023-03-06T22:43:57.182Z,0.80
2023-03-06T22:46:25.820Z,0.80
2023-03-06T22:48:56.835Z,0.82
2023-03-06T22:51:25.076Z,0.84
2023-03-06T22:53:52.844Z,0.84
2023-03-06T22:56:22.667Z,0.88
2023-03-06T22:58:50.641Z,0.90
2023-03-06T23:01:25.190Z,0.90
2023-03-06T23:03:56.302Z,0.90
2023-03-06T23:06:27.374Z,0.90
2023-03-06T23:09:13.187Z,0.90
2023-03-06T23:11:59.608Z,0.80
2023-03-06T23:14:49.785Z,0.78
2023-03-06T23:17:36.391Z,0.70
2023-03-06T23:20:23.130Z,0.70
2023-03-06T23:23:10.551Z,0.70
2023-03-06T23:25:44.535Z,0.60
2023-03-06T23:28:12.761Z,0.60
2023-03-06T23:30:41.360Z,0.60
2023-03-06T23:33:09.642Z,0.60
2023-03-06T23:35:39.245Z,0.56
2023-03-06T23:38:07.710Z,0.50
2023-03-06T23:40:37.130Z,0.50
2023-03-06T23:43:05.594Z,0.48
2023-03-06T23:45:33.625Z,0.40
2023-03-06T23:48:01.430Z,0.40
2023-03-06T23:50:29.383Z,0.40
2023-03-06T23:52:57.319Z,0.40
2023-03-06T23:55:25.430Z,0.40
2023-03-06T23:57:53.579Z,0.38
